createdAt,value
2022-10-19T00:02:11.136Z,96.09
2022-10-19T00:04:37.642Z,96.16
2022-10-19T00:07:04.236Z,95.76
2022-10-19T00:09:31.082Z,96.26
2022-10-19T00:11:57.727Z,96.85
2022-10-19T00:14:24.634Z,97.09
2022-10-19T00:16:53.258Z,96.91
2022-10-19T00:19:22.979Z,97.19
2022-10-19T00:24:17.547Z,97.42
2022-10-19T00:26:44.102Z,97.18
2022-10-19T00:29:12.455Z,97.00
2022-10-19T00:31:39.615Z,96.59
2022-10-19T00:34:06.165Z,96.35
2022-10-19T00:36:36.513Z,96.36
2022-10-19T00:39:08.402Z,96.55
2022-10-19T00:41:36.478Z,96.36
2022-10-19T00:44:06.815Z,96.56
2022-10-19T00:46:36.594Z,96.62
2022-10-19T00:49:14.108Z,96.70
2022-10-19T00:51:44.126Z,97.03
2022-10-19T00:54:11.871Z,96.62
2022-10-19T00:56:41.574Z,96.51
2022-10-19T00:59:09.750Z,96.94
2022-10-19T01:01:36.663Z,97.01
2022-10-19T01:04:04.677Z,96.82
2022-10-19T01:06:32.443Z,97.09
2022-10-19T01:08:58.981Z,96.66
2022-10-19T01:11:38.112Z,96.97
2022-10-19T01:14:16.790Z,97.37
2022-10-19T01:16:49.601Z,97.03
2022-10-19T01:19:48.673Z,97.90
2022-10-19T01:22:46.146Z,97.50
2022-10-19T01:25:48.175Z,97.40
2022-10-19T01:28:19.564Z,98.10
2022-10-19T01:30:57.179Z,97.44
2022-10-19T01:33:52.320Z,97.29
2022-10-19T01:36:25.360Z,97.31
2022-10-19T01:39:09.606Z,97.57
2022-10-19T01:41:50.181Z,97.43
2022-10-19T01:44:20.666Z,97.35
2022-10-19T01:46:52.559Z,97.17
2022-10-19T01:49:25.452Z,97.09
2022-10-19T01:54:36.612Z,96.44
2022-10-19T01:57:06.050Z,96.60
2022-10-19T01:59:33.457Z,96.63
2022-10-19T02:02:03.442Z,96.80
2022-10-19T02:04:32.439Z,96.41
2022-10-19T02:06:59.374Z,96.89
2022-10-19T02:09:26.447Z,96.34
2022-10-19T02:11:59.113Z,96.54
2022-10-19T02:14:30.066Z,96.41
2022-10-19T02:17:08.116Z,96.33
2022-10-19T02:19:35.712Z,96.41
2022-10-19T02:22:02.934Z,96.21
2022-10-19T02:24:29.522Z,96.31
2022-10-19T02:26:56.760Z,96.26
2022-10-19T02:29:23.446Z,96.26
2022-10-19T02:31:50.187Z,96.81
2022-10-19T02:34:16.909Z,96.57
2022-10-19T02:36:43.663Z,96.45
2022-10-19T02:39:10.562Z,96.70
2022-10-19T02:41:47.431Z,97.13
2022-10-19T02:44:18.078Z,97.11
2022-10-19T02:46:49.995Z,97.71
2022-10-19T02:49:16.955Z,98.04
2022-10-19T02:52:02.527Z,97.93
2022-10-19T02:54:29.455Z,98.26
2022-10-19T02:56:57.258Z,97.89
2022-10-19T02:59:25.003Z,97.68
2022-10-19T03:01:52.467Z,97.59
2022-10-19T03:04:19.221Z,97.64
2022-10-19T03:06:45.946Z,98.23
2022-10-19T03:09:12.623Z,97.71
2022-10-19T03:11:39.241Z,97.98
2022-10-19T03:14:05.841Z,98.09
2022-10-19T03:16:32.424Z,98.02
2022-10-19T03:18:59.010Z,97.85
2022-10-19T03:21:25.601Z,98.09
2022-10-19T03:23:52.306Z,98.40
2022-10-19T03:26:19.018Z,98.07
2022-10-19T03:28:46.039Z,98.27
2022-10-19T03:31:12.772Z,98.32
2022-10-19T03:33:39.355Z,98.35
2022-10-19T03:36:21.227Z,98.45
2022-10-19T03:38:50.519Z,98.52
2022-10-19T03:41:17.078Z,98.51
2022-10-19T03:43:43.621Z,97.79
2022-10-19T03:46:10.187Z,97.95
2022-10-19T03:48:36.742Z,98.08
2022-10-19T03:51:06.746Z,98.26
2022-10-19T03:53:33.640Z,98.35
2022-10-19T03:56:05.612Z,98.38
2022-10-19T03:58:35.550Z,98.08
2022-10-19T04:01:06.282Z,98.30
2022-10-19T04:03:33.061Z,97.99
2022-10-19T04:06:08.591Z,98.02
2022-10-19T04:08:35.739Z,98.09
2022-10-19T04:11:04.932Z,97.86
2022-10-19T04:13:32.409Z,98.17
2022-10-19T04:16:06.455Z,97.86
2022-10-19T04:18:33.187Z,97.60
2022-10-19T04:21:01.703Z,97.79
2022-10-19T04:23:32.731Z,98.43
2022-10-19T04:26:04.397Z,98.08
2022-10-19T04:28:31.055Z,97.76
2022-10-19T04:31:01.428Z,97.91
2022-10-19T04:33:28.133Z,97.85
2022-10-19T04:36:02.263Z,97.58
2022-10-19T04:38:29.764Z,98.49
2022-10-19T04:40:56.504Z,98.05
2022-10-19T04:43:23.055Z,98.20
2022-10-19T04:45:49.651Z,97.93
2022-10-19T04:48:16.193Z,97.57
2022-10-19T04:50:42.764Z,97.58
2022-10-19T04:53:09.641Z,97.57
2022-10-19T04:55:41.229Z,97.18
2022-10-19T04:58:08.041Z,97.38
2022-10-19T05:00:35.225Z,97.03
2022-10-19T05:03:01.816Z,97.44
2022-10-19T05:05:28.310Z,97.17
2022-10-19T05:07:55.057Z,97.26
2022-10-19T05:10:21.596Z,97.25
2022-10-19T05:12:48.187Z,97.63
2022-10-19T05:15:14.831Z,97.64
2022-10-19T05:17:41.488Z,98.00
2022-10-19T05:20:08.746Z,97.41
2022-10-19T05:22:35.483Z,97.43
2022-10-19T05:25:02.037Z,97.53
2022-10-19T05:27:28.562Z,97.40
2022-10-19T05:29:55.174Z,97.54
2022-10-19T05:32:21.814Z,97.75
2022-10-19T05:34:48.650Z,98.08
2022-10-19T05:37:17.235Z,98.65
2022-10-19T05:39:43.944Z,98.33
2022-10-19T05:42:10.476Z,98.42
2022-10-19T05:47:08.895Z,98.63
2022-10-19T05:49:35.514Z,98.50
2022-10-19T05:52:02.095Z,98.23
2022-10-19T05:54:28.807Z,98.78
2022-10-19T05:56:55.802Z,98.46
2022-10-19T05:59:23.635Z,98.61
2022-10-19T06:01:50.258Z,98.69
2022-10-19T06:06:48.371Z,98.95
2022-10-19T06:09:14.911Z,98.96
2022-10-19T06:11:42.310Z,98.75
2022-10-19T06:14:12.912Z,98.63
2022-10-19T06:16:39.658Z,98.92
2022-10-19T06:19:06.423Z,98.45
2022-10-19T06:21:34.374Z,98.82
2022-10-19T06:24:06.543Z,98.75
2022-10-19T06:26:34.639Z,98.55
2022-10-19T06:29:02.091Z,98.67
2022-10-19T06:31:31.537Z,98.61
2022-10-19T06:33:58.475Z,98.75
2022-10-19T06:36:28.251Z,98.38
2022-10-19T06:38:55.968Z,98.48
2022-10-19T06:41:23.087Z,98.47
2022-10-19T06:43:51.181Z,98.28
2022-10-19T06:46:20.821Z,98.02
2022-10-19T06:48:52.566Z,97.79
2022-10-19T06:51:19.798Z,97.44
2022-10-19T06:53:46.499Z,96.80
2022-10-19T06:56:13.071Z,97.19
2022-10-19T06:58:40.651Z,97.02
2022-10-19T07:01:08.549Z,96.67
2022-10-19T07:03:36.465Z,96.80
2022-10-19T07:06:06.230Z,96.56
2022-10-19T07:08:33.597Z,96.63
2022-10-19T07:11:06.786Z,96.22
2022-10-19T07:13:33.881Z,95.33
2022-10-19T07:16:07.258Z,95.91
2022-10-19T07:18:35.715Z,95.42
2022-10-19T07:21:06.227Z,95.12
2022-10-19T07:23:35.021Z,94.92
2022-10-19T07:26:08.185Z,94.35
2022-10-19T07:28:35.309Z,94.56
2022-10-19T07:31:10.947Z,94.73
2022-10-19T07:33:37.963Z,94.96
2022-10-19T07:36:07.822Z,92.93
2022-10-19T07:38:35.076Z,92.26
2022-10-19T07:41:14.351Z,92.65
2022-10-19T07:43:42.164Z,92.09
2022-10-19T07:46:13.522Z,92.78
2022-10-19T07:48:40.924Z,91.68
2022-10-19T07:51:09.602Z,92.58
2022-10-19T07:53:37.327Z,91.03
2022-10-19T07:56:10.234Z,91.02
2022-10-19T07:58:37.571Z,90.81
2022-10-19T08:01:13.017Z,90.88
2022-10-19T08:06:27.952Z,89.49
2022-10-19T08:08:55.351Z,90.47
2022-10-19T08:11:26.094Z,89.01
2022-10-19T08:13:53.253Z,88.64
2022-10-19T08:16:26.047Z,88.55
2022-10-19T08:18:56.054Z,87.11
2022-10-19T08:21:22.695Z,86.79
2022-10-19T08:23:49.338Z,85.72
2022-10-19T08:26:15.954Z,86.64
2022-10-19T08:28:42.531Z,85.88
2022-10-19T08:31:35.984Z,86.07
2022-10-19T08:34:03.199Z,84.89
2022-10-19T08:36:31.377Z,84.88
2022-10-19T08:38:58.981Z,84.59
2022-10-19T08:41:28.594Z,82.16
2022-10-19T08:44:18.599Z,81.41
2022-10-19T08:46:52.793Z,82.05
2022-10-19T08:49:23.533Z,81.79
2022-10-19T08:51:56.307Z,82.63
2022-10-19T08:54:24.792Z,81.05
2022-10-19T08:57:28.677Z,81.87
2022-10-19T09:00:03.819Z,80.87
2022-10-19T09:03:01.146Z,79.56
2022-10-19T09:05:50.904Z,82.14
2022-10-19T09:08:18.810Z,83.39
2022-10-19T09:10:49.344Z,81.67
2022-10-19T09:13:36.407Z,82.36
2022-10-19T09:16:15.799Z,81.35
2022-10-19T09:18:44.082Z,79.92
2022-10-19T09:21:20.898Z,79.99
2022-10-19T09:24:05.212Z,81.08
2022-10-19T09:26:36.910Z,80.67
2022-10-19T09:29:11.344Z,79.97
2022-10-19T09:31:40.746Z,79.68
2022-10-19T09:34:21.028Z,78.79
2022-10-19T09:36:52.671Z,78.92
2022-10-19T09:39:19.605Z,81.07
2022-10-19T09:41:59.046Z,79.51
2022-10-19T09:44:27.493Z,78.49
2022-10-19T09:47:25.513Z,79.37
2022-10-19T09:50:07.385Z,77.72
2022-10-19T09:52:38.070Z,77.80
2022-10-19T09:55:05.875Z,77.83
2022-10-19T09:57:32.949Z,77.20
2022-10-19T10:00:00.019Z,76.71
2022-10-19T10:02:34.209Z,78.05
2022-10-19T10:05:07.443Z,79.98
2022-10-19T10:07:37.666Z,80.28
2022-10-19T10:10:28.096Z,79.86
2022-10-19T10:12:59.579Z,78.95
2022-10-19T10:15:30.039Z,79.93
2022-10-19T10:17:58.286Z,78.48
2022-10-19T10:20:30.984Z,79.63
2022-10-19T10:23:01.297Z,80.04
2022-10-19T10:25:33.598Z,80.79
2022-10-19T10:28:01.850Z,79.74
2022-10-19T10:30:35.062Z,79.41
2022-10-19T10:33:13.365Z,79.65
2022-10-19T10:35:53.645Z,78.43
2022-10-19T10:38:25.875Z,77.98
2022-10-19T10:41:00.094Z,77.86
2022-10-19T10:43:32.871Z,75.22
2022-10-19T10:46:16.094Z,75.23
2022-10-19T10:48:53.821Z,74.44
2022-10-19T10:51:32.725Z,73.92
2022-10-19T10:54:31.739Z,75.37
2022-10-19T10:57:06.812Z,74.21
2022-10-19T10:59:45.691Z,72.91
2022-10-19T11:02:17.652Z,72.64
2022-10-19T11:04:52.271Z,72.23
2022-10-19T11:07:23.857Z,72.47
2022-10-19T11:09:58.427Z,73.98
2022-10-19T11:12:49.568Z,73.09
2022-10-19T11:15:37.047Z,71.10
2022-10-19T11:18:10.949Z,71.92
2022-10-19T11:20:46.910Z,72.17
2022-10-19T11:23:25.518Z,71.54
2022-10-19T11:26:24.409Z,72.38
2022-10-19T11:29:28.548Z,72.82
2022-10-19T11:31:57.285Z,72.18
2022-10-19T11:34:46.906Z,70.35
2022-10-19T11:37:31.506Z,68.51
2022-10-19T11:40:29.983Z,70.28
2022-10-19T11:43:07.072Z,68.84
2022-10-19T11:46:14.907Z,70.01
2022-10-19T11:48:55.874Z,70.09
2022-10-19T11:51:28.284Z,69.44
2022-10-19T11:54:06.975Z,67.13
2022-10-19T11:57:04.102Z,65.73
2022-10-19T11:59:46.665Z,66.02
2022-10-19T12:02:19.202Z,64.98
2022-10-19T12:05:00.306Z,64.49
2022-10-19T12:07:33.298Z,65.27
2022-10-19T12:10:25.454Z,66.88
2022-10-19T12:12:56.563Z,66.98
2022-10-19T12:15:48.638Z,64.92
2022-10-19T12:18:43.103Z,65.26
2022-10-19T12:21:34.091Z,66.80
2022-10-19T12:24:04.301Z,66.71
2022-10-19T12:26:35.842Z,68.57
2022-10-19T12:29:07.469Z,68.79
2022-10-19T12:31:36.128Z,67.17
2022-10-19T12:34:33.953Z,68.15
2022-10-19T12:37:18.488Z,67.82
2022-10-19T12:39:57.271Z,68.61
2022-10-19T12:42:41.857Z,69.37
2022-10-19T12:45:13.823Z,69.89
2022-10-19T12:47:40.697Z,68.43
2022-10-19T12:50:07.754Z,68.30
2022-10-19T12:52:52.449Z,67.46
2022-10-19T12:55:26.611Z,68.01
2022-10-19T12:58:03.272Z,67.13
2022-10-19T13:00:33.177Z,68.36
2022-10-19T13:03:26.244Z,67.16
2022-10-19T13:05:58.351Z,66.84
2022-10-19T13:08:30.739Z,65.22
2022-10-19T13:11:14.764Z,65.35
2022-10-19T13:13:58.561Z,65.63
2022-10-19T13:16:28.273Z,65.95
2022-10-19T13:19:02.972Z,67.72
2022-10-19T13:22:01.665Z,69.62
2022-10-19T13:24:37.057Z,70.47
2022-10-19T13:27:03.660Z,68.97
2022-10-19T13:29:39.587Z,69.10
2022-10-19T13:32:43.809Z,69.02
2022-10-19T13:35:29.116Z,68.96
2022-10-19T13:38:24.385Z,69.20
2022-10-19T13:40:51.000Z,69.60
2022-10-19T13:43:18.713Z,71.49
2022-10-19T13:46:14.393Z,72.10
2022-10-19T13:49:27.773Z,71.29
2022-10-19T13:52:21.647Z,70.88
2022-10-19T13:55:00.188Z,68.77
2022-10-19T13:58:02.838Z,67.99
2022-10-19T14:00:36.851Z,70.08
2022-10-19T14:03:26.812Z,70.34
2022-10-19T14:06:35.247Z,72.77
2022-10-19T14:09:13.263Z,73.41
2022-10-19T14:11:49.290Z,73.47
2022-10-19T14:14:17.373Z,74.18
2022-10-19T14:16:46.673Z,73.92
2022-10-19T14:19:14.869Z,74.39
2022-10-19T14:21:41.697Z,74.09
2022-10-19T14:24:40.553Z,72.81
2022-10-19T14:27:08.223Z,73.32
2022-10-19T14:29:46.191Z,71.81
2022-10-19T14:32:13.329Z,71.50
2022-10-19T14:34:44.468Z,70.38
2022-10-19T14:37:22.286Z,70.94
2022-10-19T14:40:26.641Z,71.75
2022-10-19T14:42:55.658Z,71.35
2022-10-19T14:45:25.562Z,71.66
2022-10-19T14:47:56.317Z,72.55
2022-10-19T14:50:43.368Z,74.27
2022-10-19T14:53:39.978Z,75.20
2022-10-19T14:56:09.340Z,74.64
2022-10-19T14:58:41.343Z,74.61
2022-10-19T15:01:09.582Z,74.79
2022-10-19T15:03:39.087Z,75.13
2022-10-19T15:06:18.866Z,74.64
2022-10-19T15:08:50.851Z,73.96
2022-10-19T15:11:43.854Z,72.43
2022-10-19T15:14:22.078Z,73.86
2022-10-19T15:17:01.794Z,72.37
2022-10-19T15:19:31.541Z,70.94
2022-10-19T15:22:29.629Z,69.55
2022-10-19T15:24:58.679Z,69.15
2022-10-19T15:27:36.593Z,69.45
2022-10-19T15:30:24.393Z,69.94
2022-10-19T15:33:02.308Z,71.12
2022-10-19T15:35:32.137Z,71.46
2022-10-19T15:38:15.238Z,73.78
2022-10-19T15:40:43.929Z,76.27
2022-10-19T15:43:35.344Z,78.11
2022-10-19T15:46:20.331Z,78.53
2022-10-19T15:48:52.365Z,78.30
2022-10-19T15:51:24.790Z,79.38
2022-10-19T15:53:56.813Z,80.01
2022-10-19T15:56:25.292Z,80.44
2022-10-19T15:58:53.495Z,81.79
2022-10-19T16:01:22.788Z,82.07
2022-10-19T16:03:50.141Z,82.92
2022-10-19T16:06:18.076Z,83.30
2022-10-19T16:08:46.373Z,84.19
2022-10-19T16:11:14.799Z,83.91
2022-10-19T16:13:41.547Z,84.74
2022-10-19T16:16:11.897Z,85.00
2022-10-19T16:18:38.924Z,85.87
2022-10-19T16:21:05.793Z,86.06
2022-10-19T16:23:37.840Z,86.80
2022-10-19T16:26:07.944Z,86.86
2022-10-19T16:28:34.507Z,88.07
2022-10-19T16:31:01.057Z,89.49
2022-10-19T16:33:27.780Z,88.65
2022-10-19T16:35:54.317Z,89.38
2022-10-19T16:38:20.862Z,90.04
2022-10-19T16:40:47.425Z,90.29
2022-10-19T16:43:14.139Z,90.94
2022-10-19T16:45:44.416Z,91.04
2022-10-19T16:48:12.341Z,91.79
2022-10-19T16:50:39.081Z,91.67
2022-10-19T16:53:11.463Z,91.67
2022-10-19T16:55:40.144Z,92.22
2022-10-19T16:58:07.136Z,92.36
2022-10-19T17:00:35.806Z,92.70
2022-10-19T17:03:02.532Z,92.58
2022-10-19T17:05:29.047Z,92.70
2022-10-19T17:07:55.627Z,93.18
2022-10-19T17:10:22.378Z,93.05
2022-10-19T17:12:49.005Z,92.31
2022-10-19T17:15:41.466Z,92.20
2022-10-19T17:18:02.224Z,91.64
2022-10-19T17:20:28.989Z,91.36
2022-10-19T17:22:55.536Z,91.33
2022-10-19T17:25:22.092Z,91.80
2022-10-19T17:27:52.376Z,92.66
2022-10-19T17:30:19.423Z,93.06
2022-10-19T17:32:46.218Z,93.21
2022-10-19T17:35:12.776Z,93.98
2022-10-19T17:37:39.295Z,93.07
2022-10-19T17:40:06.685Z,93.70
2022-10-19T17:42:36.499Z,94.74
2022-10-19T17:45:03.346Z,94.42
2022-10-19T17:47:30.583Z,93.44
2022-10-19T17:49:57.115Z,92.95
2022-10-19T17:52:23.636Z,92.58
2022-10-19T17:58:13.693Z,93.30
2022-10-19T18:00:40.202Z,92.92
2022-10-19T18:03:06.806Z,93.18
2022-10-19T18:05:33.647Z,92.84
2022-10-19T18:08:00.213Z,92.51
2022-10-19T18:10:26.755Z,92.31
2022-10-19T18:12:53.390Z,92.37
2022-10-19T18:15:19.984Z,92.77
2022-10-19T18:17:46.519Z,95.78
2022-10-19T18:20:13.216Z,94.63
2022-10-19T18:22:39.854Z,97.42
2022-10-19T18:28:54.617Z,96.55
2022-10-19T18:31:23.902Z,97.16
2022-10-19T18:33:56.659Z,96.57
2022-10-19T18:36:23.759Z,96.31
2022-10-19T18:38:54.935Z,95.72
2022-10-19T18:41:22.453Z,94.92
2022-10-19T18:47:31.078Z,94.87
2022-10-19T18:49:57.674Z,95.94
2022-10-19T18:52:24.187Z,95.97
2022-10-19T18:54:50.774Z,95.91
2022-10-19T18:57:17.352Z,96.66
2022-10-19T18:59:43.919Z,96.20
2022-10-19T19:02:17.249Z,95.95
2022-10-19T19:04:49.435Z,96.35
2022-10-19T19:07:16.067Z,97.02
2022-10-19T19:09:43.362Z,97.01
2022-10-19T19:12:09.900Z,97.10
2022-10-19T19:14:38.306Z,96.20
2022-10-19T19:17:04.900Z,95.91
2022-10-19T19:19:31.411Z,98.26
2022-10-19T19:21:58.293Z,97.78
2022-10-19T19:24:28.232Z,97.72
2022-10-19T19:26:54.901Z,97.89
2022-10-19T19:29:22.434Z,97.21
2022-10-19T19:31:49.449Z,97.02
2022-10-19T19:34:16.115Z,96.83
2022-10-19T19:36:47.733Z,96.96
2022-10-19T19:39:16.958Z,96.69
2022-10-19T19:41:43.559Z,95.75
2022-10-19T19:44:10.296Z,96.17
2022-10-19T19:46:37.885Z,95.86
2022-10-19T19:49:05.332Z,95.50
2022-10-19T19:51:33.313Z,95.70
2022-10-19T19:53:59.991Z,95.79
2022-10-19T19:56:27.223Z,95.63
2022-10-19T19:58:58.865Z,95.19
2022-10-19T20:01:26.505Z,94.84
2022-10-19T20:03:53.161Z,95.12
2022-10-19T20:06:23.506Z,95.12
2022-10-19T20:08:52.751Z,95.51
2022-10-19T20:11:19.461Z,95.10
2022-10-19T20:13:46.307Z,94.87
2022-10-19T20:16:18.972Z,95.44
2022-10-19T20:18:47.975Z,95.16
2022-10-19T20:21:15.646Z,94.89
2022-10-19T20:23:47.003Z,94.92
2022-10-19T20:26:18.445Z,94.79
2022-10-19T20:28:45.298Z,94.93
2022-10-19T20:31:12.619Z,94.96
2022-10-19T20:33:41.575Z,94.49
2022-10-19T20:36:20.473Z,94.57
2022-10-19T20:38:54.955Z,94.96
2022-10-19T20:41:23.598Z,96.14
2022-10-19T20:43:50.642Z,95.36
2022-10-19T20:46:22.307Z,96.14
2022-10-19T20:48:49.339Z,95.33
2022-10-19T20:51:20.105Z,95.53
2022-10-19T20:53:50.205Z,95.21
2022-10-19T20:56:28.222Z,95.37
2022-10-19T20:58:56.627Z,95.64
2022-10-19T21:01:23.437Z,95.94
2022-10-19T21:03:55.401Z,96.42
2022-10-19T21:06:24.593Z,95.85
2022-10-19T21:08:51.445Z,95.43
2022-10-19T21:11:20.616Z,95.25
2022-10-19T21:13:48.072Z,95.77
2022-10-19T21:16:17.421Z,95.79
2022-10-19T21:18:45.453Z,95.43
2022-10-19T21:21:21.152Z,95.40
2022-10-19T21:23:50.044Z,95.73
2022-10-19T21:26:17.608Z,95.46
2022-10-19T21:28:49.027Z,95.44
2022-10-19T21:31:17.387Z,95.13
2022-10-19T21:33:44.609Z,95.55
2022-10-19T21:36:13.216Z,95.74
2022-10-19T21:38:39.772Z,95.70
2022-10-19T21:41:08.885Z,95.89
2022-10-19T21:43:35.787Z,95.45
2022-10-19T21:46:04.048Z,95.80
2022-10-19T21:48:31.713Z,95.53
2022-10-19T21:50:58.581Z,95.44
2022-10-19T21:53:25.199Z,95.77
2022-10-19T21:55:53.473Z,95.42
2022-10-19T21:58:23.539Z,95.99
2022-10-19T22:00:50.142Z,95.96
2022-10-19T22:03:18.537Z,95.99
2022-10-19T22:05:52.542Z,95.57
2022-10-19T22:08:19.187Z,95.81
2022-10-19T22:10:45.725Z,96.07
2022-10-19T22:13:12.431Z,95.51
2022-10-19T22:15:43.797Z,96.32
2022-10-19T22:18:10.598Z,96.31
2022-10-19T22:20:38.965Z,95.74
2022-10-19T22:23:07.531Z,96.42
2022-10-19T22:25:35.243Z,96.69
2022-10-19T22:28:02.503Z,96.75
2022-10-19T22:30:29.217Z,96.43
2022-10-19T22:32:56.011Z,96.30
2022-10-19T22:35:22.744Z,97.07
2022-10-19T22:37:49.287Z,96.59
2022-10-19T22:40:15.797Z,97.12
2022-10-19T22:42:42.379Z,97.10
2022-10-19T22:45:09.212Z,96.52
2022-10-19T22:47:35.812Z,96.54
2022-10-19T22:50:02.610Z,97.10
2022-10-19T22:52:29.230Z,96.91
2022-10-19T22:54:55.803Z,96.61
2022-10-19T22:57:22.393Z,96.88
2022-10-19T22:59:48.973Z,96.58
2022-10-19T23:02:15.623Z,97.18
2022-10-19T23:04:42.538Z,96.79
2022-10-19T23:07:09.125Z,97.01
2022-10-19T23:09:35.710Z,97.00
2022-10-19T23:12:02.500Z,97.01
2022-10-19T23:14:29.091Z,97.36
2022-10-19T23:16:55.697Z,97.75
2022-10-19T23:19:22.535Z,97.96
2022-10-19T23:21:49.240Z,97.38
2022-10-19T23:24:15.768Z,97.10
2022-10-19T23:26:42.668Z,96.99
2022-10-19T23:29:10.507Z,97.32
2022-10-19T23:31:37.142Z,97.36
2022-10-19T23:34:03.788Z,97.37
2022-10-19T23:36:30.319Z,97.33
2022-10-19T23:38:57.907Z,97.08
2022-10-19T23:41:24.832Z,97.27
2022-10-19T23:43:51.582Z,97.48
2022-10-19T23:46:18.319Z,96.97
2022-10-19T23:48:45.026Z,97.82
2022-10-19T23:51:14.695Z,97.85
2022-10-19T23:53:43.356Z,97.45
2022-10-19T23:56:25.668Z,97.52
2022-10-19T23:58:53.233Z,97.41
